Time;durP1;ratioP1;P1;durP2;ratioP2;P2;SDS_P1;SDS_P2;PMS_P1;PMS_P2;Temp;Humidity;BMP_temperature;BMP_pressure;BME280_temperature;BME280_humidity;BME280_pressure;Samples;Min_cycle;Max_cycle;Signal;HPM_P1;HPM_P2
2021/03/09 00:01:34;;;;;;;58.90;30.80;;;3.80;99.90;;;;;;4727153;30;20561;-81
2021/03/09 00:04:00;;;;;;;54.75;29.20;;;3.80;99.90;;;;;;4718266;30;20045;-80
2021/03/09 00:06:25;;;;;;;54.58;28.83;;;3.40;99.90;;;;;;4698070;30;20486;-81
2021/03/09 00:08:53;;;;;;;59.13;30.48;;;3.60;99.90;;;;;;4724797;30;20131;-81
2021/03/09 00:11:18;;;;;;;55.15;28.40;;;3.70;99.90;;;;;;4709675;30;20072;-81
2021/03/09 00:13:45;;;;;;;63.42;30.35;;;3.40;99.90;;;;;;4713467;30;20118;-81
2021/03/09 00:16:11;;;;;;;64.78;32.35;;;3.50;99.90;;;;;;4722602;30;20454;-81
2021/03/09 00:18:36;;;;;;;65.13;32.38;;;3.70;99.90;;;;;;4706704;30;20048;-81
2021/03/09 00:21:03;;;;;;;68.53;31.48;;;3.40;99.90;;;;;;4705878;30;20041;-80
2021/03/09 00:23:29;;;;;;;56.67;30.08;;;3.40;99.90;;;;;;4725342;30;20401;-81
2021/03/09 00:25:56;;;;;;;63.88;31.88;;;3.40;99.90;;;;;;4729651;30;20056;-81
2021/03/09 00:28:22;;;;;;;60.38;30.25;;;3.40;99.90;;;;;;4712690;30;20044;-80
2021/03/09 00:30:48;;;;;;;56.85;28.13;;;3.80;99.90;;;;;;4730286;30;20049;-81
2021/03/09 00:33:14;;;;;;;68.57;32.35;;;3.40;99.90;;;;;;4704686;30;20141;-81
2021/03/09 00:35:40;;;;;;;65.68;32.17;;;3.40;99.90;;;;;;4710984;30;20706;-81
2021/03/09 00:38:07;;;;;;;57.20;30.52;;;3.40;99.90;;;;;;4719456;30;20056;-80
2021/03/09 00:40:32;;;;;;;64.63;31.23;;;3.40;99.90;;;;;;4729178;30;20048;-80
2021/03/09 00:42:58;;;;;;;66.38;34.85;;;3.40;99.90;;;;;;4722814;30;20083;-81
2021/03/09 00:45:24;;;;;;;59.05;31.70;;;3.40;99.90;;;;;;4716378;30;20845;-81
2021/03/09 00:47:49;;;;;;;64.43;33.25;;;3.50;99.90;;;;;;4708842;30;20123;-81
2021/03/09 00:50:15;;;;;;;68.28;33.78;;;3.50;99.90;;;;;;4712088;30;20089;-81
2021/03/09 00:52:41;;;;;;;66.13;33.92;;;3.50;99.90;;;;;;4694082;30;20512;-81
2021/03/09 00:55:08;;;;;;;67.45;33.50;;;3.50;99.90;;;;;;4695949;30;20056;-81
2021/03/09 00:57:33;;;;;;;68.57;35.05;;;3.50;99.90;;;;;;4710580;30;20053;-81
2021/03/09 00:59:59;;;;;;;73.35;34.80;;;3.50;99.90;;;;;;4723574;30;20064;-80
2021/03/09 01:02:25;;;;;;;77.28;33.97;;;3.70;99.90;;;;;;4709853;30;20475;-80
2021/03/09 01:04:51;;;;;;;74.82;34.42;;;3.50;99.90;;;;;;4722380;30;20044;-81
2021/03/09 01:07:17;;;;;;;71.18;33.78;;;3.50;99.90;;;;;;4723560;30;20040;-81
2021/03/09 01:09:42;;;;;;;63.35;32.42;;;3.70;99.90;;;;;;4730715;30;20075;-81
2021/03/09 01:12:09;;;;;;;67.15;32.85;;;3.70;99.90;;;;;;4713344;30;20053;-81
2021/03/09 01:14:35;;;;;;;57.47;31.80;;;3.60;99.90;;;;;;4710075;30;20056;-82
2021/03/09 01:17:01;;;;;;;66.20;33.20;;;3.90;99.90;;;;;;4694475;30;20115;-82
2021/03/09 01:19:27;;;;;;;61.35;31.95;;;3.70;99.90;;;;;;4696877;30;20083;-81
2021/03/09 01:21:54;;;;;;;57.70;30.70;;;4.00;99.90;;;;;;4725392;30;20553;-82
2021/03/09 01:24:20;;;;;;;57.05;29.70;;;3.60;99.90;;;;;;4715853;30;20044;-82
2021/03/09 01:26:45;;;;;;;66.45;31.92;;;3.70;99.90;;;;;;4726804;30;20497;-82
2021/03/09 01:29:11;;;;;;;59.05;30.20;;;3.60;99.90;;;;;;4711006;30;20040;-81
2021/03/09 01:31:37;;;;;;;59.08;29.15;;;3.90;99.90;;;;;;4710833;30;20105;-81
2021/03/09 01:34:03;;;;;;;58.47;30.55;;;3.90;99.90;;;;;;4697241;30;20065;-81
2021/03/09 01:36:29;;;;;;;60.15;30.98;;;3.60;99.90;;;;;;4729125;30;20052;-82
2021/03/09 01:38:56;;;;;;;56.58;29.02;;;3.80;99.90;;;;;;4725693;30;20105;-82
2021/03/09 01:41:22;;;;;;;58.53;30.60;;;3.70;99.90;;;;;;4704341;30;20187;-81
2021/03/09 01:43:48;;;;;;;56.15;29.50;;;3.70;99.90;;;;;;4730164;30;20123;-82
2021/03/09 01:46:16;;;;;;;58.00;29.58;;;3.60;99.90;;;;;;4708868;30;20048;-81
2021/03/09 01:48:46;;;;;;;60.80;29.73;;;3.70;99.90;;;;;;4694653;30;20048;-82
2021/03/09 01:51:16;;;;;;;56.30;29.52;;;3.70;99.90;;;;;;4697935;30;20056;-81
2021/03/09 01:53:42;;;;;;;63.67;30.73;;;4.10;99.90;;;;;;4727759;30;20056;-81
2021/03/09 01:56:08;;;;;;;54.03;28.17;;;3.70;99.90;;;;;;4724692;30;20046;-81
2021/03/09 01:58:38;;;;;;;58.22;28.77;;;3.70;99.90;;;;;;4722575;30;20049;-81
2021/03/09 02:01:04;;;;;;;60.70;29.23;;;4.10;99.90;;;;;;4707382;30;20059;-81
2021/03/09 02:03:30;;;;;;;54.42;27.17;;;3.60;99.90;;;;;;4707943;30;20142;-81
2021/03/09 02:05:56;;;;;;;59.42;29.75;;;3.70;99.90;;;;;;4709372;30;20045;-83
2021/03/09 02:08:22;;;;;;;57.58;29.45;;;3.70;99.90;;;;;;4724766;30;20045;-82
2021/03/09 02:10:48;;;;;;;53.25;27.90;;;3.70;99.90;;;;;;4708814;30;20498;-81
2021/03/09 02:13:31;;;;;;;57.60;28.88;;;3.70;99.90;;;;;;4725561;30;20048;-81
2021/03/09 02:16:13;;;;;;;61.85;30.48;;;3.70;99.90;;;;;;4698059;30;20061;-82
2021/03/09 02:18:58;;;;;;;60.53;29.75;;;3.70;99.90;;;;;;4722598;30;20048;-81
2021/03/09 02:21:45;;;;;;;59.17;28.95;;;3.70;99.90;;;;;;4709271;30;20044;-81
2021/03/09 02:24:43;;;;;;;53.65;28.92;;;3.70;99.90;;;;;;4727211;30;20141;-81
2021/03/09 02:27:20;;;;;;;59.38;29.30;;;3.70;99.90;;;;;;4707188;30;20056;-81
2021/03/09 02:30:05;;;;;;;70.47;30.73;;;3.90;99.90;;;;;;4726105;30;20040;-81
2021/03/09 02:32:34;;;;;;;56.35;29.00;;;3.70;99.90;;;;;;4715276;30;20053;-81
2021/03/09 02:35:01;;;;;;;63.88;29.13;;;3.70;99.90;;;;;;4728504;30;20106;-83
2021/03/09 02:37:35;;;;;;;57.45;28.55;;;3.70;99.90;;;;;;4708361;30;20071;-81
2021/03/09 02:40:04;;;;;;;56.10;29.38;;;3.70;99.90;;;;;;4722702;30;20048;-82
2021/03/09 02:42:31;;;;;;;67.63;30.58;;;3.80;99.90;;;;;;4707189;30;20049;-81
2021/03/09 02:45:00;;;;;;;63.30;29.77;;;4.10;99.90;;;;;;4725938;30;20040;-82
2021/03/09 02:47:27;;;;;;;69.00;32.85;;;3.80;99.90;;;;;;4723322;30;20048;-81
2021/03/09 02:49:56;;;;;;;60.92;31.05;;;3.80;99.90;;;;;;4703888;30;20452;-82
2021/03/09 02:52:25;;;;;;;62.80;30.33;;;4.10;99.90;;;;;;4731109;30;20070;-81
2021/03/09 02:54:52;;;;;;;64.32;29.98;;;4.10;99.90;;;;;;4699591;30;20060;-82
2021/03/09 02:57:20;;;;;;;61.67;28.60;;;3.80;99.90;;;;;;4732239;30;20052;-81
2021/03/09 02:59:47;;;;;;;61.58;29.52;;;3.80;99.90;;;;;;4737714;30;20155;-81
2021/03/09 03:02:16;;;;;;;55.25;28.23;;;3.90;99.90;;;;;;4715533;30;20382;-81
2021/03/09 03:04:46;;;;;;;60.05;29.77;;;3.90;99.90;;;;;;4714651;30;20131;-81
2021/03/09 03:07:14;;;;;;;68.40;30.33;;;3.90;99.90;;;;;;4728272;30;20458;-81
2021/03/09 03:09:41;;;;;;;63.58;30.13;;;3.90;99.90;;;;;;4727961;30;20185;-81
2021/03/09 03:12:09;;;;;;;61.63;29.42;;;3.90;99.90;;;;;;4729445;30;20431;-81
2021/03/09 03:14:36;;;;;;;51.17;28.13;;;3.80;99.90;;;;;;4698308;30;20065;-82
2021/03/09 03:17:04;;;;;;;53.65;28.30;;;4.10;99.90;;;;;;4720808;30;20056;-82
2021/03/09 03:19:31;;;;;;;60.03;28.90;;;3.90;99.90;;;;;;4735801;30;20052;-82
2021/03/09 03:21:58;;;;;;;56.30;27.75;;;3.90;99.90;;;;;;4736454;30;20063;-83
2021/03/09 03:24:25;;;;;;;62.47;29.35;;;3.90;99.90;;;;;;4715137;30;20048;-82
2021/03/09 03:26:52;;;;;;;60.70;28.73;;;3.90;99.90;;;;;;4713010;30;20107;-82
2021/03/09 03:29:20;;;;;;;60.35;29.65;;;3.90;99.90;;;;;;4719433;30;20041;-80
2021/03/09 03:31:50;;;;;;;60.38;28.98;;;3.90;99.90;;;;;;4714129;30;20430;-79
2021/03/09 03:34:16;;;;;;;59.33;27.92;;;3.90;99.90;;;;;;4718546;30;20526;-80
2021/03/09 03:36:42;;;;;;;56.03;28.70;;;4.10;99.90;;;;;;4726131;30;20053;-80
2021/03/09 03:39:08;;;;;;;55.63;28.00;;;4.00;99.90;;;;;;4709727;30;20048;-81
2021/03/09 03:41:34;;;;;;;65.55;28.83;;;4.30;99.90;;;;;;4697438;30;20074;-80
2021/03/09 03:44:01;;;;;;;52.30;26.85;;;4.00;99.90;;;;;;4710832;30;20042;-81
2021/03/09 03:46:27;;;;;;;53.30;26.05;;;4.00;99.90;;;;;;4702134;30;20057;-81
2021/03/09 03:48:53;;;;;;;56.30;27.60;;;4.00;99.90;;;;;;4710687;30;20052;-82
2021/03/09 03:51:26;;;;;;;59.13;26.85;;;4.00;99.90;;;;;;4711854;30;20073;-81
2021/03/09 03:54:16;;;;;;;52.60;26.95;;;4.00;99.90;;;;;;4711097;30;20103;-81
2021/03/09 03:56:59;;;;;;;51.63;26.88;;;4.00;99.90;;;;;;4711933;30;20045;-81
2021/03/09 03:59:33;;;;;;;57.80;27.38;;;4.00;99.90;;;;;;4716441;30;20053;-81
2021/03/09 04:02:07;;;;;;;49.50;25.75;;;4.00;99.90;;;;;;4714275;30;20049;-81
2021/03/09 04:04:36;;;;;;;48.28;26.08;;;4.00;99.90;;;;;;4715829;30;20084;-81
2021/03/09 04:07:03;;;;;;;49.83;24.80;;;4.00;99.90;;;;;;4712556;30;20041;-81
2021/03/09 04:09:31;;;;;;;44.05;25.05;;;4.10;99.90;;;;;;4703987;30;20139;-81
2021/03/09 04:11:58;;;;;;;54.63;25.88;;;4.10;99.90;;;;;;4715549;30;20052;-82
2021/03/09 04:14:25;;;;;;;56.58;25.27;;;4.10;99.90;;;;;;4710955;30;20055;-81
2021/03/09 04:16:53;;;;;;;47.97;25.98;;;4.10;99.90;;;;;;4708790;30;20040;-81
2021/03/09 04:19:22;;;;;;;47.80;24.63;;;4.10;99.90;;;;;;4711760;30;20502;-81
2021/03/09 04:21:49;;;;;;;50.38;24.27;;;4.10;99.90;;;;;;4711340;30;20061;-82
2021/03/09 04:24:16;;;;;;;46.33;24.17;;;4.00;99.90;;;;;;4711314;30;20049;-81
2021/03/09 04:26:43;;;;;;;46.92;23.52;;;4.10;99.90;;;;;;4712320;30;20051;-81
2021/03/09 04:29:10;;;;;;;44.80;23.75;;;4.10;99.90;;;;;;4711149;30;20048;-81
2021/03/09 04:31:37;;;;;;;48.25;24.40;;;4.10;99.90;;;;;;4715775;30;20049;-82
2021/03/09 04:34:04;;;;;;;41.78;22.98;;;4.10;99.90;;;;;;4696663;30;20064;-82
2021/03/09 04:36:30;;;;;;;44.08;24.05;;;4.20;99.90;;;;;;4696105;30;20057;-81
2021/03/09 04:38:58;;;;;;;46.53;23.52;;;4.20;99.90;;;;;;4716647;30;20053;-82
2021/03/09 04:41:24;;;;;;;46.38;24.55;;;4.20;99.90;;;;;;4714765;30;20112;-82
2021/03/09 04:43:50;;;;;;;48.03;24.27;;;4.20;99.90;;;;;;4706959;30;20423;-82
2021/03/09 04:46:16;;;;;;;46.30;23.52;;;4.20;99.90;;;;;;4705599;30;20498;-82
2021/03/09 04:48:42;;;;;;;47.70;23.35;;;4.20;99.90;;;;;;4712802;30;20558;-82
2021/03/09 04:51:10;;;;;;;48.10;24.25;;;4.20;99.90;;;;;;4719891;30;20521;-82
2021/03/09 04:53:39;;;;;;;46.53;22.63;;;4.30;99.90;;;;;;4692822;30;20148;-81
2021/03/09 04:56:05;;;;;;;48.75;23.60;;;4.20;99.90;;;;;;4718011;30;20044;-83
2021/03/09 04:58:31;;;;;;;44.67;23.23;;;4.20;99.90;;;;;;4694978;30;20418;-83
2021/03/09 05:00:57;;;;;;;40.08;22.17;;;4.20;99.90;;;;;;4693137;30;20061;-81
2021/03/09 05:03:23;;;;;;;41.47;23.50;;;4.30;99.90;;;;;;4711599;30;20095;-81
2021/03/09 05:05:50;;;;;;;45.58;23.40;;;4.30;99.90;;;;;;4714918;30;20048;-82
2021/03/09 05:08:16;;;;;;;45.80;24.00;;;4.40;99.90;;;;;;4696126;30;20053;-82
2021/03/09 05:10:42;;;;;;;51.25;25.63;;;4.60;99.90;;;;;;4697537;30;20550;-81
2021/03/09 05:13:08;;;;;;;42.45;23.17;;;4.30;99.90;;;;;;4707721;30;20831;-82
2021/03/09 05:15:33;;;;;;;44.15;23.30;;;4.30;99.90;;;;;;4693562;30;20068;-82
2021/03/09 05:18:00;;;;;;;43.17;22.58;;;4.50;99.90;;;;;;4715515;30;20041;-82
2021/03/09 05:20:26;;;;;;;51.30;25.02;;;4.30;99.90;;;;;;4710510;30;20067;-82
2021/03/09 05:22:53;;;;;;;51.75;25.00;;;4.30;99.90;;;;;;4694487;30;20059;-83
2021/03/09 05:25:19;;;;;;;51.20;25.05;;;4.30;99.90;;;;;;4712380;30;20052;-82
2021/03/09 05:27:47;;;;;;;47.35;24.10;;;4.30;99.90;;;;;;4713268;30;20088;-82
2021/03/09 05:30:15;;;;;;;55.75;24.45;;;4.60;99.90;;;;;;4709578;30;20085;-82
2021/03/09 05:32:42;;;;;;;49.47;25.02;;;4.30;99.90;;;;;;4713588;30;20049;-82
2021/03/09 05:35:09;;;;;;;51.67;24.92;;;5.30;99.90;;;;;;4708473;30;20044;-82
2021/03/09 05:37:35;;;;;;;54.65;25.52;;;4.40;99.90;;;;;;4712071;30;20082;-82
2021/03/09 05:40:00;;;;;;;45.90;24.60;;;4.80;99.90;;;;;;4681566;30;20053;-79
2021/03/09 05:42:26;;;;;;;45.88;23.80;;;4.40;99.90;;;;;;4713150;30;20238;-81
2021/03/09 05:44:52;;;;;;;47.05;23.27;;;4.80;99.90;;;;;;4708371;30;20053;-81
2021/03/09 05:47:18;;;;;;;45.10;24.00;;;4.70;99.90;;;;;;4708164;30;20151;-80
2021/03/09 05:49:48;;;;;;;46.53;24.85;;;4.70;99.90;;;;;;4712150;30;20124;-80
2021/03/09 05:52:17;;;;;;;44.75;23.35;;;4.60;99.90;;;;;;4718022;30;20056;-79
2021/03/09 05:54:43;;;;;;;50.55;25.90;;;4.60;99.90;;;;;;4694981;30;20592;-79
2021/03/09 05:57:09;;;;;;;63.70;26.92;;;4.60;99.90;;;;;;4708820;30;20044;-80
2021/03/09 05:59:35;;;;;;;61.55;27.10;;;4.60;99.90;;;;;;4714290;30;20143;-81
2021/03/09 06:02:02;;;;;;;60.97;27.90;;;4.60;99.90;;;;;;4709422;30;20056;-79
2021/03/09 06:04:35;;;;;;;58.83;27.20;;;4.50;99.90;;;;;;4710458;30;20041;-84
2021/03/09 06:07:01;;;;;;;49.92;25.33;;;4.80;99.90;;;;;;4710133;30;20048;-80
2021/03/09 06:09:47;;;;;;;50.85;25.95;;;5.20;99.90;;;;;;4707897;30;20053;-80
2021/03/09 06:12:22;;;;;;;63.15;26.85;;;5.00;99.90;;;;;;4679146;30;20056;-80
2021/03/09 06:15:00;;;;;;;92.88;29.90;;;4.90;99.90;;;;;;4727857;30;20078;-80
2021/03/09 06:17:29;;;;;;;64.22;27.10;;;4.80;99.90;;;;;;4706022;30;20076;-79
2021/03/09 06:19:56;;;;;;;104.78;30.35;;;4.80;99.90;;;;;;4714610;30;20068;-80
2021/03/09 06:22:46;;;;;;;61.90;28.70;;;4.70;99.90;;;;;;4702045;30;20141;-79
2021/03/09 06:25:20;;;;;;;67.68;29.17;;;4.70;99.90;;;;;;4713085;30;20159;-81
2021/03/09 06:27:47;;;;;;;144.18;31.33;;;4.70;99.90;;;;;;4712025;30;20041;-81
2021/03/09 06:30:37;;;;;;;67.45;28.75;;;4.70;99.90;;;;;;4709810;30;20041;-79
2021/03/09 06:33:04;;;;;;;153.18;35.05;;;4.70;99.90;;;;;;4713272;30;20053;-81
2021/03/09 06:35:40;;;;;;;86.30;32.25;;;4.70;99.90;;;;;;4707953;30;20056;-81
2021/03/09 06:38:30;;;;;;;93.47;33.38;;;4.70;99.90;;;;;;4695086;30;20053;-81
2021/03/09 06:41:08;;;;;;;217.20;36.80;;;4.70;99.90;;;;;;4715836;30;20052;-81
2021/03/09 06:43:38;;;;;;;103.15;32.90;;;4.70;99.90;;;;;;4727386;30;20053;-80
2021/03/09 06:46:11;;;;;;;166.82;34.15;;;4.70;99.90;;;;;;4707299;30;20099;-81
2021/03/09 06:48:39;;;;;;;128.02;34.75;;;4.70;99.90;;;;;;4708424;30;20053;-80
2021/03/09 06:51:05;;;;;;;72.78;32.92;;;4.80;99.90;;;;;;4718944;30;20045;-80
2021/03/09 06:53:31;;;;;;;149.02;35.97;;;4.80;99.90;;;;;;4714717;30;20139;-79
2021/03/09 06:55:57;;;;;;;75.80;32.00;;;4.80;99.90;;;;;;4715344;30;20175;-80
2021/03/09 06:58:30;;;;;;;90.20;34.65;;;4.80;99.90;;;;;;4710630;30;20490;-78
2021/03/09 07:01:15;;;;;;;390.15;43.67;;;4.90;99.90;;;;;;4712064;30;20048;-81
2021/03/09 07:03:41;;;;;;;457.45;44.65;;;4.90;99.90;;;;;;4708424;30;20065;-80
2021/03/09 07:06:07;;;;;;;494.00;48.40;;;4.80;99.90;;;;;;4715037;30;20044;-79
2021/03/09 07:08:33;;;;;;;517.72;49.58;;;4.80;99.90;;;;;;4714466;30;20657;-79
2021/03/09 07:10:59;;;;;;;226.88;40.30;;;4.90;99.90;;;;;;4714508;30;20048;-80
2021/03/09 07:13:26;;;;;;;317.27;42.83;;;4.90;99.90;;;;;;4709535;30;20143;-80
2021/03/09 07:15:53;;;;;;;566.90;52.90;;;4.90;99.90;;;;;;4715865;30;20037;-81
2021/03/09 07:18:25;;;;;;;508.42;50.75;;;4.90;99.90;;;;;;4692482;30;20627;-80
2021/03/09 07:20:53;;;;;;;392.52;46.92;;;5.00;99.90;;;;;;4710704;30;20052;-81
2021/03/09 07:23:21;;;;;;;131.93;40.10;;;4.90;99.90;;;;;;4709100;30;20518;-80
2021/03/09 07:25:53;;;;;;;482.65;50.53;;;5.00;99.90;;;;;;4711212;30;20091;-79
2021/03/09 07:28:23;;;;;;;514.15;51.83;;;5.00;99.90;;;;;;4697714;30;20059;-80
2021/03/09 07:30:51;;;;;;;562.15;56.40;;;5.00;99.90;;;;;;4713736;30;20066;-81
2021/03/09 07:33:19;;;;;;;351.15;45.90;;;5.10;99.90;;;;;;4706393;30;20457;-80
2021/03/09 07:35:46;;;;;;;668.30;55.17;;;5.10;99.90;;;;;;4714881;30;20521;-80
2021/03/09 07:38:13;;;;;;;304.42;46.35;;;5.10;99.90;;;;;;4710493;30;20041;-80
2021/03/09 07:40:39;;;;;;;733.28;64.88;;;5.10;99.90;;;;;;4713646;30;20055;-81
2021/03/09 07:43:05;;;;;;;596.28;59.42;;;5.10;99.90;;;;;;4709439;30;20425;-80
2021/03/09 07:45:33;;;;;;;442.08;52.97;;;5.10;99.90;;;;;;4707787;30;20060;-81
2021/03/09 07:48:03;;;;;;;237.52;49.97;;;5.10;99.90;;;;;;4713887;30;20170;-80
2021/03/09 07:50:35;;;;;;;111.32;43.83;;;5.10;99.90;;;;;;4711914;30;20120;-80
2021/03/09 07:53:09;;;;;;;281.52;50.15;;;5.20;99.90;;;;;;4713961;30;20045;-81
2021/03/09 07:55:39;;;;;;;216.55;47.38;;;5.20;99.90;;;;;;4703410;30;20144;-81
2021/03/09 07:58:24;;;;;;;165.07;46.97;;;5.20;99.90;;;;;;4710297;30;20049;-81
2021/03/09 08:01:00;;;;;;;176.48;44.58;;;5.20;99.90;;;;;;4712080;30;20080;-84
2021/03/09 08:03:43;;;;;;;177.48;46.65;;;5.20;99.90;;;;;;4711975;30;20544;-83
2021/03/09 08:06:10;;;;;;;145.25;41.30;;;5.20;99.90;;;;;;4721139;30;20080;-83
2021/03/09 08:08:36;;;;;;;175.75;44.05;;;5.30;99.90;;;;;;4693464;30;20458;-81
2021/03/09 08:11:03;;;;;;;207.45;48.13;;;5.30;99.90;;;;;;4709925;30;20088;-80
2021/03/09 08:13:31;;;;;;;263.10;50.63;;;5.40;99.90;;;;;;4723623;30;20057;-81
2021/03/09 08:16:19;;;;;;;178.40;47.38;;;5.50;99.90;;;;;;4694740;30;20049;-81
2021/03/09 08:18:47;;;;;;;236.57;45.42;;;5.20;99.90;;;;;;4715414;30;20098;-81
2021/03/09 08:21:13;;;;;;;153.15;38.83;;;5.10;99.90;;;;;;4694208;30;20045;-80
2021/03/09 08:23:39;;;;;;;270.98;48.80;;;5.10;99.90;;;;;;4710449;30;20061;-81
2021/03/09 08:26:06;;;;;;;190.85;39.72;;;5.10;99.90;;;;;;4705620;30;20841;-82
2021/03/09 08:28:43;;;;;;;155.50;39.28;;;5.10;99.90;;;;;;4696796;30;20056;-81
2021/03/09 08:31:11;;;;;;;123.10;37.72;;;5.10;99.90;;;;;;4721113;30;20143;-80
2021/03/09 08:33:45;;;;;;;148.55;40.25;;;5.10;99.90;;;;;;4708899;30;20045;-80
2021/03/09 08:36:19;;;;;;;102.65;36.65;;;5.00;99.90;;;;;;4690424;30;20049;-80
2021/03/09 08:39:13;;;;;;;86.90;32.97;;;5.10;99.90;;;;;;4689070;30;20122;-82
2021/03/09 08:41:41;;;;;;;88.57;31.90;;;5.20;99.90;;;;;;4685421;30;20555;-81
2021/03/09 08:44:20;;;;;;;83.13;34.00;;;5.20;99.90;;;;;;4710737;30;20044;-81
2021/03/09 08:47:08;;;;;;;91.47;35.95;;;5.30;99.90;;;;;;4706391;30;20048;-81
2021/03/09 08:49:43;;;;;;;57.75;27.70;;;5.30;99.90;;;;;;4692351;30;20068;-82
2021/03/09 08:52:40;;;;;;;61.55;28.95;;;5.40;99.90;;;;;;4696944;30;20063;-83
2021/03/09 08:55:06;;;;;;;63.20;29.80;;;5.40;99.90;;;;;;4713864;30;20103;-80
2021/03/09 09:01:22;;;;;;;63.58;29.30;;;5.40;99.90;;;;;;4711305;30;20500;-78
2021/03/09 09:03:48;;;;;;;50.90;25.23;;;5.40;99.90;;;;;;4716747;30;20049;-81
2021/03/09 09:06:15;;;;;;;58.80;26.55;;;5.30;99.90;;;;;;4714134;30;20048;-82
2021/03/09 09:08:42;;;;;;;61.60;29.02;;;5.30;99.90;;;;;;4714230;30;20494;-82
2021/03/09 09:11:08;;;;;;;57.25;28.10;;;5.40;99.90;;;;;;4705729;30;20474;-82
2021/03/09 09:17:14;;;;;;;56.92;27.02;;;5.40;99.90;;;;;;4711183;30;20048;-82
2021/03/09 09:19:41;;;;;;;56.50;27.80;;;5.40;99.90;;;;;;4719336;30;20056;-85
2021/03/09 09:22:07;;;;;;;46.75;24.35;;;5.40;99.90;;;;;;4705067;30;20060;-82
2021/03/09 09:24:34;;;;;;;48.15;25.25;;;5.50;99.90;;;;;;4695845;30;20093;-81
2021/03/09 09:27:01;;;;;;;44.33;21.80;;;5.50;99.90;;;;;;4694746;30;20068;-82
2021/03/09 09:29:27;;;;;;;53.00;25.73;;;5.40;99.90;;;;;;4694395;30;20060;-79
2021/03/09 09:31:59;;;;;;;55.95;26.90;;;5.30;99.90;;;;;;4715292;30;20056;-80
2021/03/09 09:34:36;;;;;;;56.78;27.48;;;5.30;99.90;;;;;;4713135;30;20049;-79
2021/03/09 09:37:13;;;;;;;55.22;27.45;;;5.30;99.90;;;;;;4706499;30;20478;-79
2021/03/09 09:39:39;;;;;;;56.67;26.67;;;5.30;99.90;;;;;;4720926;30;20462;-79
2021/03/09 09:42:15;;;;;;;53.03;25.73;;;5.30;99.90;;;;;;4705346;30;20053;-82
2021/03/09 09:44:49;;;;;;;44.90;23.17;;;5.30;99.90;;;;;;4708581;30;20397;-81
2021/03/09 09:47:17;;;;;;;47.95;23.52;;;5.20;99.90;;;;;;4696998;30;20052;-80
2021/03/09 09:49:45;;;;;;;48.03;23.73;;;5.30;99.90;;;;;;4715220;30;20051;-85
2021/03/09 09:52:15;;;;;;;37.33;19.52;;;5.50;99.90;;;;;;4718937;30;20049;-85
2021/03/09 09:54:52;;;;;;;43.95;22.50;;;5.20;99.90;;;;;;4701172;30;20139;-86
2021/03/09 09:57:19;;;;;;;40.85;21.08;;;5.20;99.90;;;;;;4714163;30;20131;-85
2021/03/09 10:00:24;;;;;;;47.90;23.42;;;5.20;99.90;;;;;;4713063;30;20045;-86
2021/03/09 10:03:14;;;;;;;47.72;22.05;;;5.30;99.90;;;;;;4706115;30;20061;-81
2021/03/09 10:05:41;;;;;;;45.03;22.05;;;5.20;99.90;;;;;;4713650;30;20155;-83
2021/03/09 10:08:08;;;;;;;38.63;20.98;;;5.20;99.90;;;;;;4708227;30;20052;-84
2021/03/09 10:10:34;;;;;;;43.28;22.63;;;5.20;99.90;;;;;;4714725;30;20076;-80
2021/03/09 10:13:00;;;;;;;38.80;20.02;;;5.20;99.90;;;;;;4704658;30;20053;-87
2021/03/09 10:15:46;;;;;;;43.30;21.80;;;5.10;99.90;;;;;;4722864;30;20059;-81
2021/03/09 10:18:15;;;;;;;;;;;5.10;99.90;;;;;;4719852;30;20124;-80
2021/03/09 10:20:42;;;;;;;36.88;19.95;;;5.10;99.90;;;;;;4710355;30;19927;-80
2021/03/09 10:23:08;;;;;;;43.38;21.10;;;5.10;99.90;;;;;;4704143;30;20762;-81
2021/03/09 10:25:39;;;;;;;39.35;19.85;;;5.10;99.90;;;;;;4709148;30;20077;-82
2021/03/09 10:28:05;;;;;;;32.90;18.73;;;5.40;99.90;;;;;;4700594;30;20056;-82
2021/03/09 10:30:41;;;;;;;41.97;22.08;;;5.10;99.90;;;;;;4706388;30;20506;-82
2021/03/09 10:33:11;;;;;;;40.83;20.75;;;5.20;99.90;;;;;;4722959;30;20060;-83
2021/03/09 10:36:04;;;;;;;40.65;21.08;;;5.20;99.90;;;;;;4696039;30;20080;-83
2021/03/09 10:38:30;;;;;;;42.67;22.75;;;5.20;99.90;;;;;;4729520;30;20076;-83
2021/03/09 10:40:57;;;;;;;40.25;22.17;;;5.20;99.90;;;;;;4721185;30;20045;-83
2021/03/09 10:43:39;;;;;;;38.15;19.65;;;5.20;99.90;;;;;;4728693;30;20076;-82
2021/03/09 10:46:05;;;;;;;39.33;21.73;;;5.30;99.90;;;;;;4699186;30;20053;-81
2021/03/09 10:48:31;;;;;;;35.30;20.83;;;5.10;99.90;;;;;;4729735;30;20059;-83
2021/03/09 10:50:56;;;;;;;35.80;19.73;;;5.30;99.90;;;;;;4732524;30;20525;-82
2021/03/09 10:53:22;;;;;;;37.55;20.08;;;5.10;99.90;;;;;;4711024;30;20060;-83
2021/03/09 10:55:48;;;;;;;34.78;21.67;;;5.10;99.90;;;;;;4724653;30;20068;-83
2021/03/09 10:58:13;;;;;;;36.35;20.88;;;5.20;99.90;;;;;;4742233;30;20046;-79
2021/03/09 11:00:39;;;;;;;36.00;19.48;;;5.20;99.90;;;;;;4697469;30;20059;-82
2021/03/09 11:03:05;;;;;;;33.88;18.98;;;5.40;99.90;;;;;;4710764;30;21712;-82
2021/03/09 11:05:31;;;;;;;33.30;20.58;;;5.20;99.90;;;;;;4693702;30;20479;-83
2021/03/09 11:07:56;;;;;;;31.10;20.08;;;5.30;99.90;;;;;;4721979;30;20060;-83
2021/03/09 11:10:22;;;;;;;33.78;19.77;;;5.40;99.90;;;;;;4727735;30;20040;-83
2021/03/09 11:12:48;;;;;;;35.20;20.58;;;5.20;99.90;;;;;;4706140;30;20095;-83
2021/03/09 11:15:14;;;;;;;30.80;20.23;;;5.30;99.90;;;;;;4727640;30;20071;-83
2021/03/09 11:17:40;;;;;;;28.90;17.48;;;5.30;99.90;;;;;;4720136;30;20048;-82
2021/03/09 11:20:07;;;;;;;26.92;17.13;;;5.30;99.90;;;;;;4732531;30;20056;-81
2021/03/09 11:22:33;;;;;;;24.55;16.90;;;5.40;99.90;;;;;;4718486;30;20095;-82
2021/03/09 11:24:58;;;;;;;28.08;17.98;;;5.50;99.90;;;;;;4731966;30;20123;-81
2021/03/09 11:27:25;;;;;;;28.40;16.67;;;5.20;99.90;;;;;;4713081;30;20065;-82
2021/03/09 11:29:51;;;;;;;23.90;14.43;;;5.30;99.90;;;;;;4732562;30;20052;-83
2021/03/09 11:32:17;;;;;;;24.90;16.13;;;5.30;99.90;;;;;;4715476;30;20064;-82
2021/03/09 11:34:43;;;;;;;27.38;17.95;;;5.30;99.90;;;;;;4730387;30;20500;-82
2021/03/09 11:37:08;;;;;;;24.77;16.85;;;5.20;99.90;;;;;;4729779;30;20052;-82
2021/03/09 11:39:34;;;;;;;26.15;16.20;;;5.30;99.90;;;;;;4716270;30;20532;-82
2021/03/09 11:42:00;;;;;;;28.05;18.13;;;5.30;99.90;;;;;;4701004;30;20151;-81
2021/03/09 11:44:26;;;;;;;25.30;16.25;;;5.40;99.90;;;;;;4734029;30;20603;-81
2021/03/09 11:46:52;;;;;;;24.95;15.95;;;5.50;99.90;;;;;;4733614;30;20106;-83
2021/03/09 11:49:18;;;;;;;22.75;16.02;;;5.60;99.90;;;;;;4732102;30;20272;-82
2021/03/09 11:51:44;;;;;;;24.40;15.65;;;5.60;99.90;;;;;;4712057;30;20584;-81
2021/03/09 11:54:10;;;;;;;23.80;16.25;;;5.80;99.90;;;;;;4710284;30;20626;-83
2021/03/09 11:56:36;;;;;;;23.92;17.15;;;5.60;99.90;;;;;;4719145;30;20048;-81
2021/03/09 11:59:02;;;;;;;24.73;17.05;;;5.60;99.90;;;;;;4711526;30;20083;-85
2021/03/09 12:01:28;;;;;;;22.98;15.73;;;5.70;99.90;;;;;;4707871;30;20781;-85
2021/03/09 12:03:54;;;;;;;21.83;15.65;;;5.70;99.90;;;;;;4695697;30;20065;-82
2021/03/09 12:06:20;;;;;;;22.63;17.08;;;5.70;99.90;;;;;;4695005;30;20101;-80
2021/03/09 12:08:47;;;;;;;22.50;16.13;;;5.80;99.90;;;;;;4715455;30;20494;-80
2021/03/09 12:11:13;;;;;;;24.27;16.60;;;5.50;99.90;;;;;;4708186;30;20049;-81
2021/03/09 12:13:39;;;;;;;23.63;15.50;;;5.50;99.90;;;;;;4724972;30;20063;-80
2021/03/09 12:16:05;;;;;;;26.08;16.77;;;5.50;99.90;;;;;;4725029;30;20040;-80
2021/03/09 12:18:31;;;;;;;24.75;16.38;;;5.60;99.90;;;;;;4732625;30;20048;-81
2021/03/09 12:20:58;;;;;;;23.67;16.88;;;5.70;99.90;;;;;;4708470;30;20060;-81
2021/03/09 12:23:24;;;;;;;23.70;16.30;;;5.60;99.90;;;;;;4710601;30;20080;-80
2021/03/09 12:25:50;;;;;;;25.15;16.55;;;5.60;99.90;;;;;;4726325;30;20053;-82
2021/03/09 12:28:17;;;;;;;25.38;16.90;;;5.70;99.90;;;;;;4732000;30;20813;-81
2021/03/09 12:30:44;;;;;;;25.15;16.55;;;5.80;99.90;;;;;;4722788;30;20068;-81
2021/03/09 12:33:10;;;;;;;21.23;15.30;;;5.80;99.90;;;;;;4734015;30;20045;-81
2021/03/09 12:35:36;;;;;;;23.33;16.52;;;5.90;99.90;;;;;;4725945;30;20617;-81
2021/03/09 12:38:02;;;;;;;24.92;16.10;;;5.90;99.90;;;;;;4724256;30;20048;-82
2021/03/09 12:40:28;;;;;;;24.55;16.13;;;5.90;99.90;;;;;;4712777;30;20410;-81
2021/03/09 12:42:54;;;;;;;21.85;14.40;;;6.00;99.90;;;;;;4711836;30;20061;-81
2021/03/09 12:45:20;;;;;;;23.42;15.60;;;6.00;99.90;;;;;;4696177;30;20482;-82
2021/03/09 12:47:45;;;;;;;23.55;16.27;;;6.10;99.90;;;;;;4715995;30;20119;-82
2021/03/09 12:50:12;;;;;;;25.27;17.10;;;6.00;99.90;;;;;;4698305;30;20057;-83
2021/03/09 12:52:39;;;;;;;24.58;16.98;;;6.10;99.90;;;;;;4708865;30;20056;-80